createdAt,value
2023-05-25T00:00:26.078Z,4.43
2023-05-25T00:02:56.477Z,4.40
2023-05-25T00:05:28.886Z,5.13
2023-05-25T00:07:57.964Z,4.57
2023-05-25T00:10:27.222Z,4.88
2023-05-25T00:12:57.732Z,4.85
2023-05-25T00:15:26.870Z,4.63
2023-05-25T00:17:56.181Z,4.90
2023-05-25T00:20:25.582Z,5.55
2023-05-25T00:22:56.286Z,5.25
2023-05-25T00:25:25.593Z,5.55
2023-05-25T00:27:54.601Z,5.97
2023-05-25T00:30:25.114Z,5.97
2023-05-25T00:32:55.661Z,7.20
2023-05-25T00:35:24.902Z,6.20
2023-05-25T00:37:54.177Z,7.03
2023-05-25T00:40:26.205Z,7.15
2023-05-25T00:42:55.516Z,6.00
2023-05-25T00:45:26.207Z,7.40
2023-05-25T00:47:56.355Z,6.10
2023-05-25T00:50:42.967Z,6.88
2023-05-25T00:53:13.908Z,6.28
2023-05-25T00:55:51.506Z,7.18
2023-05-25T00:58:25.598Z,6.28
2023-05-25T01:00:59.049Z,5.72
2023-05-25T01:03:36.275Z,6.57
2023-05-25T01:06:08.581Z,6.00
2023-05-25T01:08:39.596Z,5.60
2023-05-25T01:11:13.380Z,5.85
2023-05-25T01:13:44.136Z,5.72
2023-05-25T01:16:17.206Z,5.32
2023-05-25T01:18:48.106Z,5.20
2023-05-25T01:21:29.010Z,5.55
2023-05-25T01:24:08.398Z,5.88
2023-05-25T01:26:45.775Z,5.63
2023-05-25T01:29:15.822Z,5.63
2023-05-25T01:31:46.755Z,5.65
2023-05-25T01:34:17.726Z,5.35
2023-05-25T01:36:48.318Z,5.30
2023-05-25T01:39:17.468Z,4.35
2023-05-25T01:41:46.790Z,4.88
2023-05-25T01:44:18.804Z,6.32
2023-05-25T01:46:55.423Z,4.50
2023-05-25T01:49:31.154Z,5.22
2023-05-25T01:52:14.057Z,4.50
2023-05-25T01:54:48.789Z,4.32
2023-05-25T01:57:20.683Z,4.90
2023-05-25T01:59:52.981Z,5.15
2023-05-25T02:02:22.596Z,4.60
2023-05-25T02:04:54.225Z,4.18
2023-05-25T02:07:26.859Z,4.15
2023-05-25T02:09:56.457Z,4.30
2023-05-25T02:12:25.665Z,4.05
2023-05-25T02:14:54.680Z,4.18
2023-05-25T02:17:28.149Z,4.38
2023-05-25T02:19:57.433Z,3.38
2023-05-25T02:22:28.662Z,3.60
2023-05-25T02:24:57.706Z,3.95
2023-05-25T02:27:26.873Z,4.03
2023-05-25T02:29:56.003Z,3.97
2023-05-25T02:32:29.577Z,3.97
2023-05-25T02:34:58.718Z,4.50
2023-05-25T02:37:29.326Z,4.10
2023-05-25T02:39:58.407Z,4.30
2023-05-25T02:42:27.858Z,4.40
2023-05-25T02:44:56.936Z,4.25
2023-05-25T02:47:26.237Z,4.15
2023-05-25T02:49:55.507Z,4.15
2023-05-25T02:52:25.745Z,4.43
2023-05-25T02:54:56.557Z,4.20
2023-05-25T03:00:02.538Z,4.38
2023-05-25T03:02:31.648Z,4.07
2023-05-25T03:05:03.116Z,4.45
2023-05-25T03:07:33.437Z,3.92
2023-05-25T03:10:04.165Z,3.90
2023-05-25T03:12:35.232Z,4.03
2023-05-25T03:15:09.346Z,4.15
2023-05-25T03:17:38.694Z,4.18
2023-05-25T03:20:15.769Z,4.53
2023-05-25T03:22:48.513Z,4.50
2023-05-25T03:25:19.486Z,4.30
2023-05-25T03:27:48.847Z,4.97
2023-05-25T03:30:18.087Z,4.47
2023-05-25T03:32:48.178Z,5.03
2023-05-25T03:35:17.824Z,4.78
2023-05-25T03:37:46.901Z,4.40
2023-05-25T03:40:16.056Z,4.70
2023-05-25T03:42:46.718Z,4.55
2023-05-25T03:45:16.331Z,4.35
2023-05-25T03:47:50.520Z,4.30
2023-05-25T03:50:21.997Z,4.00
2023-05-25T03:52:52.186Z,4.50
2023-05-25T03:55:21.254Z,4.10
2023-05-25T03:57:51.780Z,4.68
2023-05-25T04:00:21.098Z,4.30
2023-05-25T04:02:51.602Z,4.10
2023-05-25T04:05:20.748Z,4.85
2023-05-25T04:07:49.889Z,4.57
2023-05-25T04:10:19.077Z,4.55
2023-05-25T04:12:48.139Z,4.78
2023-05-25T04:15:21.294Z,3.95
2023-05-25T04:18:06.054Z,3.90
2023-05-25T04:20:35.575Z,4.07
2023-05-25T04:23:04.814Z,4.28
2023-05-25T04:25:34.553Z,4.35
2023-05-25T04:28:03.880Z,3.97
2023-05-25T04:30:58.141Z,4.07
2023-05-25T04:33:50.372Z,4.13
2023-05-25T04:36:27.080Z,4.50
2023-05-25T04:38:56.439Z,4.85
2023-05-25T04:41:30.359Z,4.88
2023-05-25T04:44:09.788Z,4.30
2023-05-25T04:46:45.031Z,4.57
2023-05-25T04:49:20.304Z,4.40
2023-05-25T04:51:51.666Z,4.72
2023-05-25T04:54:21.364Z,4.18
2023-05-25T04:56:53.305Z,4.40
2023-05-25T04:59:22.646Z,4.35
2023-05-25T05:01:53.192Z,4.53
2023-05-25T05:04:23.046Z,4.05
2023-05-25T05:06:52.504Z,4.22
2023-05-25T05:09:25.216Z,4.32
2023-05-25T05:11:57.355Z,4.78
2023-05-25T05:14:26.459Z,4.30
2023-05-25T05:17:09.125Z,3.75
2023-05-25T05:19:38.272Z,4.30
2023-05-25T05:22:09.953Z,4.10
2023-05-25T05:24:40.269Z,4.50
2023-05-25T05:27:09.426Z,4.50
2023-05-25T05:29:44.757Z,3.90
2023-05-25T05:32:15.348Z,4.45
2023-05-25T05:34:47.174Z,5.03
2023-05-25T05:37:30.999Z,4.82
2023-05-25T05:40:01.498Z,4.90
2023-05-25T05:42:33.065Z,4.97
2023-05-25T05:45:02.567Z,5.30
2023-05-25T05:47:33.123Z,4.60
2023-05-25T05:50:02.167Z,4.70
2023-05-25T05:52:32.225Z,5.40
2023-05-25T05:55:01.284Z,5.57
2023-05-25T05:57:30.285Z,5.15
2023-05-25T06:00:00.462Z,4.93
2023-05-25T06:02:29.652Z,5.40
2023-05-25T06:05:01.640Z,4.97
2023-05-25T06:07:35.255Z,5.10
2023-05-25T06:10:04.603Z,5.50
2023-05-25T06:12:33.765Z,5.85
2023-05-25T06:15:03.577Z,5.40
2023-05-25T06:17:32.925Z,5.50
2023-05-25T06:20:03.945Z,5.75
2023-05-25T06:22:34.635Z,5.65
2023-05-25T06:25:03.738Z,5.32
2023-05-25T06:27:32.780Z,6.05
2023-05-25T06:30:03.201Z,5.45
2023-05-25T06:32:32.415Z,5.47
2023-05-25T06:35:03.395Z,5.85
2023-05-25T06:37:35.430Z,5.75
2023-05-25T06:40:09.536Z,5.68
2023-05-25T06:42:39.227Z,5.35
2023-05-25T06:45:28.155Z,6.25
2023-05-25T06:47:57.575Z,5.45
2023-05-25T06:50:28.936Z,5.25
2023-05-25T06:52:59.791Z,6.05
2023-05-25T06:55:29.671Z,5.88
2023-05-25T06:57:59.026Z,6.25
2023-05-25T07:00:28.199Z,6.43
2023-05-25T07:02:57.291Z,5.72
2023-05-25T07:05:30.841Z,5.78
2023-05-25T07:07:59.893Z,4.93
2023-05-25T07:10:28.884Z,5.43
2023-05-25T07:12:57.990Z,5.15
2023-05-25T07:15:27.669Z,6.10
2023-05-25T07:17:59.267Z,4.93
2023-05-25T07:20:30.505Z,6.53
2023-05-25T07:23:01.186Z,5.95
2023-05-25T07:25:30.272Z,4.43
2023-05-25T07:27:59.499Z,4.40
2023-05-25T07:30:28.738Z,4.47
2023-05-25T07:32:58.284Z,4.60
2023-05-25T07:35:27.567Z,4.60
2023-05-25T07:38:02.524Z,4.47
2023-05-25T07:40:31.900Z,4.28
2023-05-25T07:43:01.218Z,4.75
2023-05-25T07:45:31.011Z,4.60
2023-05-25T07:48:00.173Z,4.40
2023-05-25T07:50:31.542Z,4.50
2023-05-25T07:53:02.315Z,5.15
2023-05-25T07:55:31.342Z,4.50
2023-05-25T07:58:00.289Z,5.20
2023-05-25T08:00:29.666Z,5.00
2023-05-25T08:02:58.887Z,4.95
2023-05-25T08:05:29.283Z,4.90
2023-05-25T08:07:58.383Z,4.97
2023-05-25T08:10:32.200Z,4.35
2023-05-25T08:13:01.310Z,4.10
2023-05-25T08:15:30.448Z,4.57
2023-05-25T08:17:59.563Z,3.95
2023-05-25T08:20:28.671Z,4.35
2023-05-25T08:22:59.212Z,4.35
2023-05-25T08:25:29.636Z,4.75
2023-05-25T08:27:59.986Z,4.50
2023-05-25T08:30:29.268Z,4.50
2023-05-25T08:32:58.338Z,4.50
2023-05-25T08:35:27.480Z,4.65
2023-05-25T08:37:56.582Z,3.85
2023-05-25T08:40:29.846Z,4.68
2023-05-25T08:42:58.909Z,4.45
2023-05-25T08:48:05.481Z,4.13
2023-05-25T08:50:35.588Z,4.10
2023-05-25T08:53:09.513Z,4.25
2023-05-25T08:55:43.620Z,4.20
2023-05-25T08:58:20.649Z,4.90
2023-05-25T09:00:56.431Z,4.25
2023-05-25T09:03:25.961Z,4.55
2023-05-25T09:05:57.599Z,3.95
2023-05-25T09:08:27.375Z,4.47
2023-05-25T09:10:58.353Z,4.38
2023-05-25T09:13:27.984Z,4.05
2023-05-25T09:15:57.088Z,4.03
2023-05-25T09:18:26.412Z,3.83
2023-05-25T09:20:56.368Z,3.55
2023-05-25T09:23:26.025Z,3.78
2023-05-25T09:25:55.944Z,4.00
2023-05-25T09:28:27.786Z,4.05
2023-05-25T09:30:57.884Z,3.60
2023-05-25T09:33:27.441Z,4.07
2023-05-25T09:35:57.117Z,4.53
2023-05-25T09:38:26.504Z,4.30
2023-05-25T09:40:56.234Z,4.03
2023-05-25T09:43:39.694Z,4.15
2023-05-25T09:46:10.774Z,4.15
2023-05-25T09:48:40.083Z,3.58
2023-05-25T09:51:09.735Z,4.00
2023-05-25T09:53:38.737Z,4.00
2023-05-25T09:56:08.171Z,3.92
2023-05-25T09:58:38.593Z,4.43
2023-05-25T10:01:07.860Z,4.10
2023-05-25T10:04:03.572Z,3.30
2023-05-25T10:06:35.010Z,4.35
2023-05-25T10:09:05.487Z,3.75
2023-05-25T10:11:36.354Z,3.45
2023-05-25T10:14:09.444Z,3.55
2023-05-25T10:16:42.315Z,3.83
2023-05-25T10:19:18.429Z,3.58
2023-05-25T10:21:56.099Z,3.10
2023-05-25T10:24:36.740Z,3.88
2023-05-25T10:27:18.427Z,3.72
2023-05-25T10:29:59.210Z,3.75
2023-05-25T10:32:29.504Z,3.55
2023-05-25T10:35:00.381Z,3.85
2023-05-25T10:37:30.662Z,3.75
2023-05-25T10:40:01.300Z,3.92
2023-05-25T10:42:31.287Z,3.72
2023-05-25T10:45:02.373Z,3.22
2023-05-25T10:47:32.350Z,3.90
2023-05-25T10:50:03.060Z,4.30
2023-05-25T10:52:33.542Z,3.78
2023-05-25T10:55:04.983Z,3.90
2023-05-25T10:57:34.421Z,3.55
2023-05-25T11:00:10.371Z,3.42
2023-05-25T11:03:00.405Z,3.97
2023-05-25T11:05:40.828Z,3.63
2023-05-25T11:08:12.527Z,3.60
2023-05-25T11:11:00.190Z,3.50
2023-05-25T11:13:41.442Z,3.17
2023-05-25T11:16:21.338Z,3.05
2023-05-25T11:18:57.809Z,3.95
2023-05-25T11:21:45.204Z,3.30
2023-05-25T11:24:18.312Z,3.20
2023-05-25T11:26:56.917Z,3.47
2023-05-25T11:29:27.380Z,3.08
2023-05-25T11:31:57.898Z,3.20
2023-05-25T11:34:28.123Z,3.25
2023-05-25T11:37:01.858Z,3.03
2023-05-25T11:39:32.021Z,2.95
2023-05-25T11:42:06.939Z,3.17
2023-05-25T11:44:38.990Z,3.38
2023-05-25T11:47:15.929Z,3.67
2023-05-25T11:49:47.279Z,3.20
2023-05-25T11:52:18.118Z,3.50
2023-05-25T11:54:47.783Z,3.42
2023-05-25T11:57:18.603Z,3.55
2023-05-25T11:59:54.629Z,3.60
2023-05-25T12:02:26.083Z,3.40
2023-05-25T12:04:56.314Z,3.40
2023-05-25T12:07:26.614Z,3.30
2023-05-25T12:10:07.835Z,3.33
2023-05-25T12:12:42.466Z,3.10
2023-05-25T12:15:14.025Z,3.25
2023-05-25T12:17:46.912Z,2.83
2023-05-25T12:20:18.549Z,2.80
2023-05-25T12:22:48.891Z,3.20
2023-05-25T12:25:22.713Z,3.30
2023-05-25T12:28:13.453Z,3.00
2023-05-25T12:30:43.884Z,2.95
2023-05-25T12:33:25.681Z,3.20
2023-05-25T12:35:55.847Z,3.63
2023-05-25T12:38:25.330Z,3.20
2023-05-25T12:41:07.254Z,3.22
2023-05-25T12:43:40.609Z,3.30
2023-05-25T12:46:09.771Z,3.10
2023-05-25T12:48:44.601Z,3.00
2023-05-25T12:51:13.875Z,3.00
2023-05-25T12:53:51.748Z,3.00
2023-05-25T12:56:27.020Z,2.72
2023-05-25T12:58:58.960Z,3.05
2023-05-25T13:01:28.136Z,2.83
2023-05-25T13:03:58.945Z,2.83
2023-05-25T13:06:28.089Z,3.28
2023-05-25T13:08:59.892Z,2.65
2023-05-25T13:11:29.045Z,3.00
2023-05-25T13:13:58.425Z,2.72
2023-05-25T13:16:28.000Z,2.83
2023-05-25T13:18:58.508Z,3.95
2023-05-25T13:21:28.353Z,2.72
2023-05-25T13:23:57.296Z,3.03
2023-05-25T13:26:26.493Z,2.85
2023-05-25T13:28:55.497Z,2.83
2023-05-25T13:31:24.631Z,2.90
2023-05-25T13:33:53.731Z,2.80
2023-05-25T13:36:24.279Z,2.60
2023-05-25T13:38:53.378Z,3.25
2023-05-25T13:41:22.403Z,2.83
2023-05-25T13:43:53.768Z,2.65
2023-05-25T13:46:34.052Z,2.53
2023-05-25T13:49:04.288Z,2.90
2023-05-25T13:51:38.311Z,3.10
2023-05-25T13:54:07.465Z,3.03
2023-05-25T13:56:36.533Z,3.03
2023-05-25T13:59:05.842Z,3.03
2023-05-25T14:01:34.910Z,3.15
2023-05-25T14:04:04.826Z,2.75
2023-05-25T14:06:35.957Z,3.10
2023-05-25T14:09:05.134Z,2.83
2023-05-25T14:11:35.332Z,2.80
2023-05-25T14:14:11.415Z,2.97
2023-05-25T14:16:45.736Z,2.85
2023-05-25T14:19:16.733Z,2.95
2023-05-25T14:21:53.840Z,2.80
2023-05-25T14:24:29.028Z,3.15
2023-05-25T14:26:58.213Z,2.97
2023-05-25T14:29:30.298Z,2.95
2023-05-25T14:31:59.467Z,3.08
2023-05-25T14:34:28.805Z,3.03
2023-05-25T14:36:59.355Z,2.67
2023-05-25T14:39:28.391Z,3.20
2023-05-25T14:41:57.516Z,2.97
2023-05-25T14:44:26.551Z,2.90
2023-05-25T14:46:58.381Z,3.05
2023-05-25T14:49:27.820Z,3.40
2023-05-25T14:51:58.378Z,2.95
2023-05-25T14:54:27.450Z,2.70
2023-05-25T14:56:56.576Z,2.72
2023-05-25T14:59:25.535Z,2.63
2023-05-25T15:01:54.690Z,3.03
2023-05-25T15:04:27.182Z,2.78
2023-05-25T15:06:56.379Z,3.22
2023-05-25T15:09:26.762Z,2.55
2023-05-25T15:11:58.935Z,2.65
2023-05-25T15:14:28.248Z,3.08
2023-05-25T15:16:57.308Z,2.47
2023-05-25T15:19:26.471Z,3.20
2023-05-25T15:21:55.462Z,2.80
2023-05-25T15:24:28.652Z,2.97
2023-05-25T15:26:57.796Z,2.80
2023-05-25T15:29:27.071Z,3.03
2023-05-25T15:31:56.197Z,2.60
2023-05-25T15:34:34.857Z,2.95
2023-05-25T15:37:04.149Z,2.67
2023-05-25T15:39:34.775Z,2.55
2023-05-25T15:42:03.873Z,2.40
2023-05-25T15:44:35.864Z,3.92
2023-05-25T15:47:05.318Z,2.63
2023-05-25T15:49:36.950Z,2.50
2023-05-25T15:52:07.269Z,2.75
2023-05-25T15:54:37.743Z,3.05
2023-05-25T15:57:07.263Z,2.83
2023-05-25T15:59:36.506Z,2.60
2023-05-25T16:02:06.239Z,2.60
2023-05-25T16:04:35.282Z,2.67
2023-05-25T16:07:04.301Z,2.40
2023-05-25T16:09:33.335Z,2.67
2023-05-25T16:12:03.816Z,2.55
2023-05-25T16:14:32.912Z,3.10
2023-05-25T16:17:02.039Z,3.20
2023-05-25T16:19:31.023Z,3.30
2023-05-25T16:22:02.387Z,3.20
2023-05-25T16:24:31.440Z,3.40
2023-05-25T16:27:00.929Z,3.63
2023-05-25T16:29:31.355Z,3.88
2023-05-25T16:32:00.603Z,4.28
2023-05-25T16:34:29.705Z,4.32
2023-05-25T16:36:58.855Z,3.60
2023-05-25T16:39:27.842Z,3.83
2023-05-25T16:41:56.937Z,3.47
2023-05-25T16:44:26.431Z,3.50
2023-05-25T16:46:56.979Z,3.03
2023-05-25T16:49:25.934Z,3.50
2023-05-25T16:51:55.502Z,3.50
2023-05-25T16:54:24.477Z,3.58
2023-05-25T16:56:53.640Z,3.50
2023-05-25T16:59:23.085Z,3.45
2023-05-25T17:01:52.412Z,3.38
2023-05-25T17:04:23.036Z,3.50
2023-05-25T17:06:54.693Z,3.65
2023-05-25T17:09:25.182Z,3.67
2023-05-25T17:11:54.278Z,3.35
2023-05-25T17:14:23.343Z,3.70
2023-05-25T17:16:52.298Z,3.15
2023-05-25T17:19:23.650Z,3.90
2023-05-25T17:21:52.706Z,3.38
2023-05-25T17:24:21.638Z,3.60
2023-05-25T17:26:51.792Z,3.50
2023-05-25T17:29:20.958Z,3.83
2023-05-25T17:31:50.175Z,3.50
2023-05-25T17:34:19.319Z,3.35
2023-05-25T17:36:49.695Z,3.90
2023-05-25T17:39:18.767Z,3.60
2023-05-25T17:41:49.765Z,3.78
2023-05-25T17:44:18.724Z,3.80
2023-05-25T17:46:47.762Z,4.40
2023-05-25T17:49:16.756Z,4.07
2023-05-25T17:51:46.791Z,3.70
2023-05-25T17:54:19.861Z,3.95
2023-05-25T17:56:49.006Z,4.03
2023-05-25T17:59:17.993Z,4.18
2023-05-25T18:01:47.341Z,3.92
2023-05-25T18:04:16.907Z,3.78
2023-05-25T18:06:46.250Z,3.83
2023-05-25T18:09:17.109Z,3.60
2023-05-25T18:11:49.893Z,3.88
2023-05-25T18:14:18.985Z,3.53
2023-05-25T18:16:49.794Z,3.90
2023-05-25T18:19:20.898Z,3.78
2023-05-25T18:21:53.030Z,4.50
2023-05-25T18:24:22.448Z,4.00
2023-05-25T18:26:53.418Z,4.05
2023-05-25T18:29:23.136Z,4.07
2023-05-25T18:31:52.333Z,4.30
2023-05-25T18:34:22.701Z,4.75
2023-05-25T18:36:51.869Z,3.78
2023-05-25T18:39:21.199Z,4.32
2023-05-25T18:41:50.595Z,4.10
2023-05-25T18:44:21.282Z,4.88
2023-05-25T18:46:52.874Z,4.30
2023-05-25T18:49:23.432Z,4.45
2023-05-25T18:51:52.575Z,4.40
2023-05-25T18:54:21.787Z,4.10
2023-05-25T18:56:51.568Z,3.80
2023-05-25T18:59:22.888Z,4.05
2023-05-25T19:01:52.904Z,4.18
2023-05-25T19:04:24.477Z,4.60
2023-05-25T19:06:53.856Z,4.55
2023-05-25T19:09:22.958Z,4.35
2023-05-25T19:11:56.200Z,4.85
2023-05-25T19:14:26.734Z,4.43
2023-05-25T19:16:58.949Z,5.10
2023-05-25T19:19:30.479Z,4.97
2023-05-25T19:21:59.875Z,5.35
2023-05-25T19:24:29.027Z,5.10
2023-05-25T19:26:58.027Z,4.40
2023-05-25T19:29:30.729Z,4.72
2023-05-25T19:31:59.759Z,4.97
2023-05-25T19:34:28.791Z,4.90
2023-05-25T19:37:07.462Z,5.55
2023-05-25T19:39:40.647Z,4.65
2023-05-25T19:42:10.189Z,4.22
2023-05-25T19:44:41.809Z,4.25
2023-05-25T19:47:12.853Z,4.20
2023-05-25T19:49:42.938Z,4.28
2023-05-25T19:52:12.145Z,4.00
2023-05-25T19:54:41.999Z,4.00
2023-05-25T19:57:11.478Z,3.78
2023-05-25T19:59:42.813Z,4.57
2023-05-25T20:02:12.336Z,4.90
2023-05-25T20:04:41.689Z,4.15
2023-05-25T20:07:12.303Z,3.75
2023-05-25T20:09:42.944Z,4.20
2023-05-25T20:12:15.057Z,4.38
2023-05-25T20:14:45.535Z,3.92
2023-05-25T20:17:40.037Z,4.18
2023-05-25T20:20:09.700Z,4.93
2023-05-25T20:22:38.700Z,4.50
2023-05-25T20:25:08.819Z,4.65
2023-05-25T20:27:38.057Z,4.32
2023-05-25T20:30:10.201Z,4.22
2023-05-25T20:32:39.392Z,4.55
2023-05-25T20:35:09.364Z,4.72
2023-05-25T20:37:38.344Z,4.45
2023-05-25T20:40:08.738Z,4.30
2023-05-25T20:42:37.803Z,4.60
2023-05-25T20:45:09.913Z,4.47
2023-05-25T20:47:41.132Z,4.90
2023-05-25T20:50:10.528Z,4.20
2023-05-25T20:52:41.663Z,4.10
2023-05-25T20:55:10.627Z,4.35
2023-05-25T20:57:39.777Z,3.97
2023-05-25T21:00:12.732Z,4.57
2023-05-25T21:02:44.507Z,3.80
2023-05-25T21:05:13.765Z,4.65
2023-05-25T21:07:42.811Z,4.32
2023-05-25T21:10:12.278Z,4.57
2023-05-25T21:12:41.460Z,4.40
2023-05-25T21:15:12.335Z,4.60
2023-05-25T21:17:41.487Z,4.05
2023-05-25T21:20:11.686Z,4.25
2023-05-25T21:22:41.167Z,4.60
2023-05-25T21:25:13.822Z,5.88
2023-05-25T21:27:42.948Z,4.50
2023-05-25T21:30:14.502Z,4.38
2023-05-25T21:32:43.567Z,4.53
2023-05-25T21:35:12.635Z,4.90
2023-05-25T21:37:41.630Z,4.72
2023-05-25T21:40:11.298Z,4.47
2023-05-25T21:42:40.397Z,5.15
2023-05-25T21:45:13.237Z,5.30
2023-05-25T21:47:43.772Z,5.03
2023-05-25T21:50:12.912Z,5.45
2023-05-25T21:52:44.895Z,4.78
2023-05-25T21:55:17.461Z,5.07
2023-05-25T21:57:48.439Z,5.50
2023-05-25T22:00:18.550Z,5.10
2023-05-25T22:02:49.207Z,4.90
2023-05-25T22:05:18.356Z,5.03
2023-05-25T22:07:47.385Z,5.10
2023-05-25T22:10:16.617Z,5.03
2023-05-25T22:12:47.801Z,4.80
2023-05-25T22:15:17.050Z,4.95
2023-05-25T22:17:46.180Z,5.68
2023-05-25T22:20:17.911Z,5.40
2023-05-25T22:22:46.945Z,5.63
2023-05-25T22:25:16.605Z,5.47
2023-05-25T22:27:45.747Z,5.55
2023-05-25T22:30:14.993Z,5.18
2023-05-25T22:32:46.961Z,5.80
2023-05-25T22:35:17.472Z,5.22
2023-05-25T22:37:46.711Z,5.70
2023-05-25T22:40:15.864Z,6.10
2023-05-25T22:42:50.059Z,5.57
2023-05-25T22:45:19.581Z,5.80
2023-05-25T22:47:49.033Z,6.13
2023-05-25T22:50:19.598Z,5.53
2023-05-25T22:52:48.753Z,5.25
2023-05-25T22:55:17.738Z,5.18
2023-05-25T22:57:46.854Z,5.70
2023-05-25T23:00:16.168Z,6.75
2023-05-25T23:02:45.433Z,5.35
2023-05-25T23:05:14.442Z,5.13
2023-05-25T23:07:44.955Z,5.78
2023-05-25T23:10:14.111Z,6.00
2023-05-25T23:12:43.344Z,5.90
2023-05-25T23:15:13.078Z,6.28
2023-05-25T23:17:42.185Z,6.03
2023-05-25T23:20:15.051Z,5.97
2023-05-25T23:22:49.494Z,6.18
2023-05-25T23:25:18.881Z,6.63
2023-05-25T23:27:48.086Z,6.45
2023-05-25T23:30:19.675Z,6.32
2023-05-25T23:32:48.692Z,5.78
2023-05-25T23:35:17.868Z,6.10
2023-05-25T23:37:48.255Z,5.53
2023-05-25T23:40:17.381Z,5.70
2023-05-25T23:42:46.493Z,6.38
2023-05-25T23:45:15.603Z,6.28
2023-05-25T23:47:44.777Z,6.63
2023-05-25T23:50:13.863Z,6.40
2023-05-25T23:52:47.479Z,6.93
2023-05-25T23:55:16.551Z,5.88
2023-05-25T23:57:52.863Z,5.68
